createdAt,value
2023-11-14T00:18:23.158Z,28.37
2023-11-14T00:28:26.327Z,24.53
2023-11-14T00:38:30.738Z,34.17
2023-11-14T00:48:33.693Z,19.77
2023-11-14T00:58:38.735Z,22.20
2023-11-14T01:08:41.824Z,29.10
2023-11-14T01:18:46.160Z,28.77
2023-11-14T01:28:49.567Z,28.63
2023-11-14T01:38:54.189Z,27.93
2023-11-14T01:49:00.293Z,22.47
2023-11-14T01:59:05.136Z,24.53
2023-11-14T02:09:09.007Z,26.27
2023-11-14T02:19:13.947Z,27.57
2023-11-14T02:29:22.215Z,34.17
2023-11-14T02:39:25.355Z,23.57
2023-11-14T02:49:46.695Z,28.57
2023-11-14T02:59:50.268Z,34.67
2023-11-14T03:09:54.860Z,29.87
2023-11-14T03:19:58.177Z,31.97
2023-11-14T03:30:02.900Z,30.67
2023-11-14T03:40:07.331Z,24.93
2023-11-14T03:50:12.316Z,22.60
2023-11-14T04:00:16.413Z,22.13
2023-11-14T04:10:22.328Z,18.03
2023-11-14T04:20:25.566Z,25.80
2023-11-14T04:30:30.025Z,24.57
2023-11-14T04:40:33.158Z,26.10
2023-11-14T04:50:38.645Z,27.73
2023-11-14T05:00:41.794Z,23.50
2023-11-14T05:10:47.563Z,21.50
2023-11-14T05:20:51.047Z,25.77
2023-11-14T05:30:55.408Z,20.03
2023-11-14T05:40:58.806Z,30.27
2023-11-14T05:51:03.732Z,23.37
2023-11-14T06:01:08.242Z,28.37
2023-11-14T06:11:15.933Z,21.67
2023-11-14T06:21:20.712Z,19.95
2023-11-14T06:31:27.433Z,22.13
2023-11-14T06:41:30.435Z,23.23
2023-11-14T06:51:34.966Z,18.40
2023-11-14T07:01:38.375Z,22.40
2023-11-14T07:11:42.880Z,26.20
2023-11-14T07:21:47.562Z,23.17
2023-11-14T07:31:52.715Z,27.90
2023-11-14T07:41:55.856Z,19.87
2023-11-14T07:52:00.291Z,22.80
2023-11-14T08:02:04.277Z,14.37
2023-11-14T08:12:09.377Z,13.00
2023-11-14T08:22:13.052Z,7.90
2023-11-14T08:32:18.012Z,10.90
2023-11-14T08:42:21.691Z,11.00
2023-11-14T08:52:26.069Z,11.43
2023-11-14T09:02:29.460Z,12.97
2023-11-14T09:12:34.370Z,9.33
2023-11-14T09:22:39.333Z,10.53
2023-11-14T09:32:44.223Z,13.30
2023-11-14T09:42:47.712Z,13.80
2023-11-14T09:52:53.786Z,7.67
2023-11-14T10:02:58.869Z,8.80
2023-11-14T10:13:04.808Z,9.23
2023-11-14T10:23:16.863Z,7.07
2023-11-14T10:33:41.609Z,8.27
2023-11-14T10:43:45.636Z,11.63
2023-11-14T10:53:52.822Z,13.67
2023-11-14T11:03:56.560Z,17.77
2023-11-14T11:14:02.385Z,22.60
2023-11-14T11:24:17.636Z,19.43
2023-11-14T11:34:32.722Z,23.73
2023-11-14T11:44:39.947Z,20.83
2023-11-14T11:54:46.305Z,19.90
2023-11-14T12:04:53.816Z,15.67
2023-11-14T12:14:58.345Z,22.93
2023-11-14T12:25:01.655Z,14.77
2023-11-14T12:35:07.251Z,18.93
2023-11-14T12:45:12.073Z,11.20
2023-11-14T12:55:16.540Z,17.50
2023-11-14T13:05:19.876Z,8.47
2023-11-14T13:15:25.532Z,13.60
2023-11-14T13:25:28.445Z,16.93
2023-11-14T13:35:32.734Z,15.60
2023-11-14T13:45:36.888Z,11.97
2023-11-14T13:55:41.652Z,9.37
2023-11-14T14:05:44.909Z,6.17
2023-11-14T14:15:49.545Z,11.93
2023-11-14T14:25:52.913Z,10.63
2023-11-14T14:35:57.407Z,7.53
2023-11-14T14:46:01.208Z,8.77
2023-11-14T14:56:07.376Z,8.17
2023-11-14T15:06:10.876Z,7.33
2023-11-14T15:16:17.195Z,8.57
2023-11-14T15:26:20.892Z,4.97
2023-11-14T15:36:28.369Z,4.10
2023-11-14T15:46:31.741Z,1.37
2023-11-14T15:56:36.727Z,2.53
2023-11-14T16:06:39.750Z,2.30
2023-11-14T16:16:44.351Z,1.23
2023-11-14T16:26:47.615Z,4.53
2023-11-14T16:36:52.777Z,2.23
2023-11-14T16:46:55.857Z,7.50
2023-11-14T16:57:00.440Z,5.20
2023-11-14T17:07:04.167Z,10.83
2023-11-14T17:17:08.668Z,2.60
2023-11-14T17:27:14.254Z,2.10
2023-11-14T17:37:18.766Z,3.20
2023-11-14T17:47:23.085Z,9.37
2023-11-14T17:57:29.901Z,2.13
2023-11-14T18:07:33.039Z,28.37
2023-11-14T18:17:37.872Z,4.17
2023-11-14T18:27:40.928Z,1.90
2023-11-14T18:37:45.625Z,1.60
2023-11-14T18:47:49.000Z,1.90
2023-11-14T18:57:53.930Z,1.17
2023-11-14T19:07:57.267Z,1.10
2023-11-14T19:18:01.943Z,2.97
2023-11-14T19:28:05.101Z,1.93
2023-11-14T19:38:09.923Z,1.07
2023-11-14T19:48:13.224Z,1.63
2023-11-14T19:58:17.872Z,2.43
2023-11-14T20:08:21.891Z,2.23
2023-11-14T20:18:27.513Z,0.93
2023-11-14T20:28:31.535Z,1.00
2023-11-14T20:38:36.023Z,2.73
2023-11-14T20:48:39.642Z,3.63
2023-11-14T20:58:44.713Z,2.23
2023-11-14T21:08:48.398Z,4.30
2023-11-14T21:18:53.896Z,3.07
2023-11-14T21:28:57.464Z,3.57
2023-11-14T21:39:02.908Z,6.37
2023-11-14T21:49:10.713Z,5.20
2023-11-14T21:59:15.242Z,4.20
2023-11-14T22:09:18.692Z,8.47
2023-11-14T22:19:23.900Z,3.67
2023-11-14T22:29:27.394Z,5.13
2023-11-14T22:39:32.569Z,7.57
2023-11-14T22:49:36.773Z,4.43
2023-11-14T22:59:41.755Z,6.90
2023-11-14T23:09:45.884Z,6.00
2023-11-14T23:19:50.510Z,3.60
2023-11-14T23:29:53.615Z,4.03
2023-11-14T23:39:58.426Z,4.00
2023-11-14T23:50:01.960Z,2.77
